Time;durP1;ratioP1;P1;durP2;ratioP2;P2;SDS_P1;SDS_P2;PMS_P1;PMS_P2;Temp;Humidity;BMP_temperature;BMP_pressure;BME280_temperature;BME280_humidity;BME280_pressure;Samples;Min_cycle;Max_cycle;Signal;HPM_P1;HPM_P2
2023/05/29 00:02:08;;;;;;;7.17;4.47;;;12.10;13.30;;;;;;5012609;28;20203;-68
2023/05/29 00:04:34;;;;;;;8.80;5.53;;;12.10;14.20;;;;;;5011548;28;20176;-68
2023/05/29 00:06:59;;;;;;;8.03;4.90;;;12.10;14.00;;;;;;5012763;28;20282;-68
2023/05/29 00:09:25;;;;;;;5.70;4.63;;;12.10;14.30;;;;;;5012801;28;20330;-68
2023/05/29 00:11:52;;;;;;;10.93;4.83;;;12.00;14.40;;;;;;5012736;28;20226;-68
2023/05/29 00:14:22;;;;;;;6.97;4.53;;;12.00;14.80;;;;;;5013267;28;20488;-68
2023/05/29 00:16:48;;;;;;;8.10;4.23;;;12.00;15.00;;;;;;5012592;28;20466;-68
2023/05/29 00:19:16;;;;;;;7.07;4.70;;;12.00;15.20;;;;;;5012687;28;20939;-68
2023/05/29 00:21:42;;;;;;;6.97;4.93;;;12.00;15.40;;;;;;5012264;28;20785;-68
2023/05/29 00:24:08;;;;;;;5.70;4.93;;;11.90;15.40;;;;;;5012709;28;20424;-68
2023/05/29 00:26:33;;;;;;;8.80;5.03;;;11.90;15.40;;;;;;5012710;28;20204;-68
2023/05/29 00:28:59;;;;;;;7.20;4.57;;;11.80;15.30;;;;;;5012518;28;20681;-68
2023/05/29 00:31:24;;;;;;;10.57;4.70;;;11.80;15.30;;;;;;5012281;28;20183;-68
2023/05/29 00:33:50;;;;;;;7.40;4.70;;;11.80;15.30;;;;;;5012517;28;20180;-68
2023/05/29 00:36:16;;;;;;;6.57;4.37;;;11.80;15.30;;;;;;5011908;28;20250;-68
2023/05/29 00:38:41;;;;;;;6.00;4.80;;;11.80;15.30;;;;;;5012223;28;20184;-69
2023/05/29 00:41:07;;;;;;;5.80;3.80;;;11.70;15.30;;;;;;5011834;28;20208;-67
2023/05/29 00:43:33;;;;;;;9.43;5.67;;;11.70;15.80;;;;;;5012123;28;20222;-67
2023/05/29 00:45:59;;;;;;;10.20;5.50;;;11.60;16.50;;;;;;5012139;28;20438;-67
2023/05/29 00:48:25;;;;;;;6.87;4.53;;;11.60;16.20;;;;;;5012418;28;20271;-69
2023/05/29 00:50:51;;;;;;;7.00;4.93;;;11.50;15.70;;;;;;5013962;28;20421;-69
2023/05/29 00:53:17;;;;;;;6.27;4.60;;;11.50;15.10;;;;;;5011744;28;20801;-67
2023/05/29 00:55:42;;;;;;;7.00;4.77;;;11.50;15.20;;;;;;5013838;28;20270;-69
2023/05/29 00:58:08;;;;;;;9.30;5.60;;;11.50;15.50;;;;;;5012511;28;20182;-69
2023/05/29 01:00:35;;;;;;;8.80;5.40;;;11.40;15.60;;;;;;5012035;28;20267;-69
2023/05/29 01:03:04;;;;;;;8.30;5.20;;;11.30;16.20;;;;;;5011921;28;20849;-69
2023/05/29 01:05:33;;;;;;;8.40;5.33;;;11.20;16.30;;;;;;5011897;28;20433;-69
2023/05/29 01:07:59;;;;;;;8.30;5.80;;;11.20;16.50;;;;;;5012097;28;20421;-69
2023/05/29 01:10:26;;;;;;;10.93;6.43;;;11.10;16.70;;;;;;5011827;28;20419;-69
2023/05/29 01:12:56;;;;;;;6.40;4.80;;;11.10;17.10;;;;;;5011788;28;20606;-69
2023/05/29 01:15:27;;;;;;;9.77;6.20;;;11.00;17.30;;;;;;5011790;28;20427;-69
2023/05/29 01:18:19;;;;;;;10.90;6.40;;;11.00;17.80;;;;;;5011874;28;20900;-69
2023/05/29 01:20:48;;;;;;;6.67;4.17;;;11.00;18.20;;;;;;5010834;28;20938;-69
2023/05/29 01:23:23;;;;;;;8.40;4.80;;;10.90;18.60;;;;;;5011675;28;20421;-69
2023/05/29 01:25:54;;;;;;;4.43;3.80;;;10.90;18.60;;;;;;5011880;28;20444;-69
2023/05/29 01:28:26;;;;;;;5.63;3.80;;;10.90;19.00;;;;;;5011769;28;20429;-67
2023/05/29 01:30:53;;;;;;;5.80;4.60;;;10.80;18.90;;;;;;5010717;28;20426;-68
2023/05/29 01:33:19;;;;;;;9.40;5.60;;;10.80;18.90;;;;;;5011684;28;20457;-68
2023/05/29 01:35:45;;;;;;;7.90;6.23;;;10.80;18.90;;;;;;5039005;22;20532;-69
2023/05/29 01:38:10;;;;;;;8.47;4.47;;;10.80;18.90;;;;;;5031110;28;20257;-70
2023/05/29 01:40:36;;;;;;;9.33;4.83;;;10.80;19.60;;;;;;5031299;28;20231;-69
2023/05/29 01:43:03;;;;;;;6.23;4.77;;;10.70;20.00;;;;;;5030673;28;20250;-70
2023/05/29 01:45:29;;;;;;;5.20;3.47;;;10.70;19.90;;;;;;5031023;28;20443;-70
2023/05/29 01:47:56;;;;;;;5.70;3.70;;;10.70;19.90;;;;;;5031090;28;20413;-70
2023/05/29 01:50:23;;;;;;;9.00;4.80;;;10.60;20.20;;;;;;5030991;28;20481;-69
2023/05/29 01:52:49;;;;;;;4.87;4.07;;;10.60;20.40;;;;;;5034521;28;20464;-70
2023/05/29 01:55:15;;;;;;;5.93;4.60;;;10.60;20.70;;;;;;5034713;28;20409;-69
2023/05/29 01:57:41;;;;;;;9.87;5.80;;;10.60;20.90;;;;;;5034340;28;20229;-70
2023/05/29 02:00:11;;;;;;;6.40;4.10;;;10.50;20.80;;;;;;5034686;28;20689;-69
2023/05/29 02:02:40;;;;;;;9.57;4.93;;;10.50;21.10;;;;;;5034412;28;20420;-70
2023/05/29 02:05:07;;;;;;;7.27;4.93;;;10.50;21.00;;;;;;5034685;28;20907;-70
2023/05/29 02:07:33;;;;;;;6.00;4.47;;;10.40;21.30;;;;;;5034675;28;20503;-70
2023/05/29 02:09:58;;;;;;;9.67;4.80;;;10.40;21.20;;;;;;5034456;28;20512;-70
2023/05/29 02:12:24;;;;;;;8.53;5.03;;;10.40;21.10;;;;;;5034502;28;20421;-70
2023/05/29 02:14:53;;;;;;;4.93;3.70;;;10.40;20.90;;;;;;5034639;28;20241;-70
2023/05/29 02:17:19;;;;;;;6.40;4.37;;;10.30;21.40;;;;;;5034325;28;20571;-70
2023/05/29 02:19:45;;;;;;;10.87;4.23;;;10.30;21.70;;;;;;5034139;28;20414;-70
2023/05/29 02:22:10;;;;;;;6.37;4.17;;;10.30;21.60;;;;;;5033894;28;20186;-69
2023/05/29 02:24:36;;;;;;;8.40;4.30;;;10.20;21.50;;;;;;5034005;28;20410;-69
2023/05/29 02:27:03;;;;;;;9.77;5.40;;;10.20;21.70;;;;;;5033875;28;20199;-69
2023/05/29 02:29:28;;;;;;;5.73;3.93;;;10.10;21.90;;;;;;5033996;28;20180;-70
2023/05/29 02:31:54;;;;;;;7.77;4.83;;;10.10;22.00;;;;;;5033571;28;20417;-70
2023/05/29 02:34:22;;;;;;;7.10;4.80;;;10.10;22.10;;;;;;5033726;28;20605;-70
2023/05/29 02:36:48;;;;;;;13.33;5.87;;;10.10;22.60;;;;;;5033495;28;20687;-70
2023/05/29 02:39:14;;;;;;;7.57;5.13;;;10.00;22.60;;;;;;5033821;28;20410;-70
2023/05/29 02:41:39;;;;;;;8.87;5.20;;;10.10;22.70;;;;;;5032094;28;20413;-70
2023/05/29 02:44:05;;;;;;;7.90;4.83;;;10.00;23.60;;;;;;5033962;28;20178;-70
2023/05/29 02:46:31;;;;;;;7.87;5.57;;;10.00;23.60;;;;;;5033527;28;20224;-69
2023/05/29 02:48:56;;;;;;;6.83;4.53;;;10.00;24.50;;;;;;5033470;28;20185;-70
2023/05/29 02:51:22;;;;;;;7.40;4.40;;;10.00;24.50;;;;;;5033447;28;20552;-69
2023/05/29 02:53:48;;;;;;;7.07;4.23;;;10.00;25.00;;;;;;5033068;28;20182;-69
2023/05/29 02:56:15;;;;;;;8.87;4.97;;;10.00;25.80;;;;;;5031776;28;20210;-69
2023/05/29 02:58:41;;;;;;;8.13;4.70;;;10.00;26.00;;;;;;5033450;28;20755;-69
2023/05/29 03:01:07;;;;;;;6.17;4.07;;;10.00;26.70;;;;;;5033383;28;20440;-69
2023/05/29 03:03:33;;;;;;;9.33;5.27;;;10.00;27.90;;;;;;5032142;28;20965;-69
2023/05/29 03:06:00;;;;;;;7.50;5.20;;;10.00;30.00;;;;;;5031870;28;20210;-69
2023/05/29 03:08:27;;;;;;;9.03;5.03;;;9.90;33.30;;;;;;5033190;28;20178;-69
2023/05/29 03:10:54;;;;;;;9.57;5.57;;;9.90;31.90;;;;;;5033331;28;20507;-70
2023/05/29 03:13:19;;;;;;;7.47;4.80;;;9.90;29.40;;;;;;5032783;28;20484;-70
2023/05/29 03:15:45;;;;;;;5.97;3.97;;;9.80;30.30;;;;;;5031485;28;20507;-70
2023/05/29 03:18:11;;;;;;;6.80;4.90;;;9.90;29.40;;;;;;5032912;28;20190;-69
2023/05/29 03:20:37;;;;;;;7.07;3.97;;;9.90;29.50;;;;;;5032810;28;20185;-69
2023/05/29 03:23:02;;;;;;;7.60;4.70;;;9.80;29.50;;;;;;5032499;28;20663;-69
2023/05/29 03:25:29;;;;;;;7.03;5.03;;;9.80;29.70;;;;;;5032623;28;20462;-69
2023/05/29 03:27:54;;;;;;;6.57;4.60;;;9.70;30.50;;;;;;5032828;28;20174;-70
2023/05/29 03:30:20;;;;;;;9.53;4.40;;;9.70;31.00;;;;;;5031355;28;20444;-70
2023/05/29 03:32:46;;;;;;;6.03;3.87;;;9.70;31.80;;;;;;5032441;28;20185;-70
2023/05/29 03:35:11;;;;;;;5.73;4.40;;;9.80;31.70;;;;;;5032482;28;20177;-70
2023/05/29 03:37:37;;;;;;;10.00;4.47;;;9.80;30.20;;;;;;5032683;28;20224;-69
2023/05/29 03:40:05;;;;;;;7.93;4.60;;;9.80;27.30;;;;;;5032474;28;20200;-70
2023/05/29 03:42:33;;;;;;;7.30;5.20;;;9.80;25.10;;;;;;5032305;28;20232;-69
2023/05/29 03:44:59;;;;;;;9.30;6.43;;;9.90;24.80;;;;;;5032465;28;20416;-69
2023/05/29 03:47:25;;;;;;;7.57;5.50;;;9.80;24.00;;;;;;5032422;28;20435;-69
2023/05/29 03:49:51;;;;;;;7.83;4.87;;;9.90;23.30;;;;;;5032266;28;20188;-70
2023/05/29 03:52:16;;;;;;;6.83;4.07;;;9.80;23.60;;;;;;5032019;28;20170;-69
2023/05/29 03:54:42;;;;;;;8.07;5.10;;;9.80;24.00;;;;;;5032275;28;20480;-70
2023/05/29 03:57:08;;;;;;;7.77;5.87;;;9.80;24.60;;;;;;5032117;28;20571;-70
2023/05/29 03:59:34;;;;;;;7.07;4.53;;;9.90;24.90;;;;;;5032224;28;20210;-70
2023/05/29 04:02:00;;;;;;;6.80;4.80;;;9.90;23.90;;;;;;5032132;28;20813;-70
2023/05/29 04:04:26;;;;;;;6.93;5.17;;;9.90;24.90;;;;;;5032126;28;20213;-70
2023/05/29 04:06:55;;;;;;;5.53;4.00;;;10.00;23.30;;;;;;5031947;28;20194;-70
2023/05/29 04:09:21;;;;;;;8.50;5.30;;;10.10;22.60;;;;;;5031984;28;20528;-70
2023/05/29 04:11:47;;;;;;;9.50;5.87;;;10.20;22.70;;;;;;5031633;28;20512;-68
2023/05/29 04:14:13;;;;;;;10.20;5.00;;;10.30;22.20;;;;;;5031874;28;20262;-67
2023/05/29 04:16:38;;;;;;;8.53;5.87;;;10.30;22.00;;;;;;5030273;28;20216;-70
2023/05/29 04:19:04;;;;;;;7.50;4.80;;;10.30;21.70;;;;;;5030485;28;20275;-70
2023/05/29 04:21:32;;;;;;;6.07;4.70;;;10.30;21.80;;;;;;5031543;28;20182;-70
2023/05/29 04:23:58;;;;;;;6.13;4.60;;;10.40;21.50;;;;;;5031700;28;20163;-70
2023/05/29 04:26:24;;;;;;;8.70;4.93;;;10.60;21.00;;;;;;5031480;28;20449;-70
2023/05/29 04:28:56;;;;;;;7.40;4.30;;;10.60;20.70;;;;;;5031552;28;20427;-70
2023/05/29 04:31:24;;;;;;;8.90;6.07;;;10.70;20.80;;;;;;5031623;28;20414;-70
2023/05/29 04:33:54;;;;;;;7.97;5.43;;;10.80;20.50;;;;;;5032864;28;20784;-70
2023/05/29 04:36:26;;;;;;;7.00;5.43;;;10.80;21.00;;;;;;5031786;28;20867;-68
2023/05/29 04:38:55;;;;;;;10.83;5.33;;;10.90;20.60;;;;;;5031975;28;20785;-68
2023/05/29 04:41:23;;;;;;;8.80;4.80;;;11.00;20.60;;;;;;5030230;28;20422;-68
2023/05/29 04:43:52;;;;;;;8.20;5.00;;;11.00;20.10;;;;;;5030760;28;20418;-69
2023/05/29 04:46:17;;;;;;;8.17;5.53;;;11.10;20.00;;;;;;5031211;28;20438;-69
2023/05/29 04:48:43;;;;;;;8.40;4.40;;;11.10;20.10;;;;;;5031481;28;20420;-69
2023/05/29 04:51:12;;;;;;;7.83;4.30;;;11.20;19.50;;;;;;5030121;28;20182;-69
2023/05/29 04:53:40;;;;;;;10.73;6.40;;;11.30;19.60;;;;;;5031130;28;20801;-69
2023/05/29 04:56:06;;;;;;;10.63;6.13;;;11.40;19.30;;;;;;5031384;28;20832;-68
2023/05/29 04:58:32;;;;;;;6.33;4.50;;;11.40;20.00;;;;;;5031152;28;20406;-69
2023/05/29 05:00:57;;;;;;;9.93;8.40;;;11.60;19.40;;;;;;5031312;28;20554;-69
2023/05/29 05:03:25;;;;;;;8.63;6.20;;;11.70;18.10;;;;;;5031193;28;20163;-69
2023/05/29 05:05:51;;;;;;;9.47;5.40;;;11.80;17.80;;;;;;5030180;28;20306;-69
2023/05/29 05:08:17;;;;;;;7.63;5.27;;;11.80;18.20;;;;;;5030157;28;20941;-69
2023/05/29 05:10:43;;;;;;;9.30;5.43;;;12.00;17.70;;;;;;5031039;28;20410;-69
2023/05/29 05:13:08;;;;;;;10.27;5.97;;;12.10;17.40;;;;;;5030692;28;20422;-69
2023/05/29 05:15:34;;;;;;;9.97;6.37;;;12.20;16.60;;;;;;5031121;28;20218;-69
2023/05/29 05:17:59;;;;;;;7.93;5.30;;;12.20;16.00;;;;;;5031468;28;20397;-69
2023/05/29 05:20:25;;;;;;;8.07;5.60;;;12.30;16.90;;;;;;5031143;28;20179;-69
2023/05/29 05:22:51;;;;;;;6.53;4.97;;;12.40;16.00;;;;;;5030788;28;20171;-69
2023/05/29 05:25:17;;;;;;;9.23;6.60;;;12.60;15.60;;;;;;5030952;28;20176;-70
2023/05/29 05:27:42;;;;;;;8.30;5.53;;;12.80;14.50;;;;;;5034856;28;20421;-69
2023/05/29 05:30:08;;;;;;;9.40;6.77;;;13.00;14.30;;;;;;5035182;28;20175;-69
2023/05/29 05:32:34;;;;;;;9.03;5.10;;;13.80;12.30;;;;;;5034459;28;20183;-70
2023/05/29 05:35:00;;;;;;;11.13;6.00;;;15.80;8.60;;;;;;5034694;28;20419;-70
2023/05/29 05:37:26;;;;;;;7.20;5.70;;;17.40;3.60;;;;;;5034630;28;20472;-70
2023/05/29 05:39:53;;;;;;;6.77;5.20;;;18.10;1.30;;;;;;5033189;28;20175;-70
2023/05/29 05:42:19;;;;;;;8.40;7.00;;;18.50;1.00;;;;;;5034344;28;20694;-70
2023/05/29 05:44:45;;;;;;;8.73;5.83;;;18.40;1.00;;;;;;5034396;28;20406;-68
2023/05/29 05:47:10;;;;;;;7.83;5.33;;;18.10;1.00;;;;;;5034458;28;20432;-69
2023/05/29 05:49:36;;;;;;;6.63;5.57;;;19.50;1.00;;;;;;5034653;28;20484;-69
2023/05/29 05:52:01;;;;;;;6.67;5.97;;;21.80;1.00;;;;;;5034297;28;20179;-72
2023/05/29 05:54:27;;;;;;;7.10;6.20;;;22.30;1.00;;;;;;5032965;28;20187;-72
2023/05/29 05:56:52;;;;;;;7.03;6.30;;;24.00;1.00;;;;;;5024133;28;20204;-72
2023/05/29 05:59:18;;;;;;;8.83;6.27;;;26.30;1.00;;;;;;5014237;28;20191;-70
2023/05/29 06:01:43;;;;;;;8.40;7.70;;;27.40;1.00;;;;;;5014249;28;20233;-70
2023/05/29 06:04:09;;;;;;;7.97;6.90;;;28.50;1.00;;;;;;5014289;28;20246;-70
2023/05/29 06:06:35;;;;;;;7.80;7.17;;;29.60;1.00;;;;;;5014332;28;20662;-70
2023/05/29 06:09:01;;;;;;;10.97;8.27;;;30.70;1.00;;;;;;5014681;28;20187;-70
2023/05/29 06:11:26;;;;;;;10.87;7.23;;;31.40;1.00;;;;;;5014344;28;20178;-70
2023/05/29 06:13:52;;;;;;;8.77;7.57;;;31.60;1.00;;;;;;5014039;28;20800;-70
2023/05/29 06:16:18;;;;;;;10.17;7.20;;;31.90;1.00;;;;;;5014046;28;20216;-70
2023/05/29 06:18:44;;;;;;;8.00;7.30;;;32.00;1.00;;;;;;5014177;28;20411;-70
2023/05/29 06:21:11;;;;;;;8.00;7.20;;;31.50;1.00;;;;;;5014038;28;20230;-70
2023/05/29 06:23:37;;;;;;;8.10;7.40;;;32.60;1.00;;;;;;5013880;28;20402;-69
2023/05/29 06:26:03;;;;;;;7.50;6.80;;;32.80;1.00;;;;;;5014327;28;20438;-70
2023/05/29 06:28:29;;;;;;;8.00;7.30;;;33.30;1.00;;;;;;5029358;28;20237;-70
2023/05/29 06:30:55;;;;;;;8.70;7.90;;;33.80;1.00;;;;;;5033848;28;20406;-69
2023/05/29 06:33:21;;;;;;;6.90;6.30;;;34.20;1.00;;;;;;5033370;28;20929;-70
2023/05/29 06:35:47;;;;;;;8.47;6.33;;;34.80;1.00;;;;;;5033227;28;20298;-70
2023/05/29 06:38:14;;;;;;;7.60;6.80;;;34.70;1.00;;;;;;5032323;28;20180;-70
2023/05/29 06:40:39;;;;;;;23.83;7.67;;;33.90;1.00;;;;;;5033556;28;20175;-70
2023/05/29 06:43:05;;;;;;;7.83;6.90;;;33.50;1.00;;;;;;5031036;28;20449;-70
2023/05/29 06:45:30;;;;;;;7.10;6.40;;;34.20;1.00;;;;;;5031899;28;20203;-71
2023/05/29 06:47:56;;;;;;;7.37;6.77;;;35.10;1.00;;;;;;5033346;28;20814;-70
2023/05/29 06:50:22;;;;;;;8.57;7.67;;;34.90;1.00;;;;;;5033083;28;20262;-70
2023/05/29 06:52:47;;;;;;;10.30;8.23;;;33.60;1.00;;;;;;5030561;28;20183;-69
2023/05/29 06:55:13;;;;;;;10.03;8.23;;;33.40;1.00;;;;;;5033168;28;20254;-71
2023/05/29 06:57:38;;;;;;;7.30;6.80;;;34.20;1.00;;;;;;5032937;28;20210;-71
2023/05/29 07:00:06;;;;;;;9.30;7.53;;;34.80;1.00;;;;;;5033141;28;20175;-70
2023/05/29 07:02:32;;;;;;;8.73;7.83;;;35.10;1.00;;;;;;5032892;28;20258;-71
2023/05/29 07:04:57;;;;;;;8.80;8.00;;;35.10;1.00;;;;;;5032433;28;20540;-70
2023/05/29 07:07:23;;;;;;;9.03;7.57;;;35.70;1.00;;;;;;5032782;28;20536;-70
2023/05/29 07:09:48;;;;;;;7.77;7.00;;;36.00;1.00;;;;;;5032123;28;20183;-73
2023/05/29 07:12:14;;;;;;;8.00;6.77;;;35.90;1.00;;;;;;5032376;28;20183;-70
2023/05/29 07:14:39;;;;;;;7.77;6.90;;;35.40;1.00;;;;;;5032914;28;20294;-72
2023/05/29 07:17:05;;;;;;;7.13;6.40;;;34.80;1.00;;;;;;5031151;28;20518;-72
2023/05/29 07:19:33;;;;;;;8.27;7.47;;;35.40;1.00;;;;;;5030868;28;20179;-72
2023/05/29 07:21:59;;;;;;;12.27;7.30;;;35.40;1.00;;;;;;5030599;28;20221;-72
2023/05/29 07:24:25;;;;;;;7.77;6.97;;;34.10;1.00;;;;;;5030767;28;20410;-72
2023/05/29 07:26:50;;;;;;;8.20;7.17;;;34.40;1.00;;;;;;5030656;28;20627;-72
2023/05/29 07:29:17;;;;;;;9.10;7.60;;;34.60;1.00;;;;;;5030521;28;20175;-72
2023/05/29 07:31:44;;;;;;;7.57;6.90;;;34.30;1.00;;;;;;5031580;28;20176;-72
2023/05/29 07:34:10;;;;;;;7.07;6.37;;;35.30;1.00;;;;;;5032557;28;20829;-72
2023/05/29 07:36:35;;;;;;;7.00;6.30;;;35.30;1.00;;;;;;5032780;28;20469;-72
2023/05/29 07:39:02;;;;;;;7.33;6.73;;;35.70;1.00;;;;;;5032456;28;20413;-72
2023/05/29 07:41:27;;;;;;;9.50;7.13;;;36.60;1.00;;;;;;5032101;28;20178;-71
2023/05/29 07:43:55;;;;;;;7.77;6.97;;;36.30;1.00;;;;;;5032176;28;20401;-71
2023/05/29 07:46:21;;;;;;;7.83;7.00;;;36.80;1.00;;;;;;5032261;28;20274;-71
2023/05/29 07:48:46;;;;;;;6.70;6.10;;;36.20;1.00;;;;;;5031858;28;20493;-71
2023/05/29 07:51:12;;;;;;;7.17;6.47;;;36.00;1.00;;;;;;5032097;28;20552;-72
2023/05/29 07:53:38;;;;;;;7.33;6.70;;;36.00;1.00;;;;;;5032016;28;20297;-72
2023/05/29 07:56:03;;;;;;;8.43;7.20;;;36.40;1.00;;;;;;5031911;28;20763;-71
2023/05/29 07:58:29;;;;;;;6.67;6.17;;;36.60;1.00;;;;;;5032363;28;20672;-71
2023/05/29 08:00:54;;;;;;;8.07;7.30;;;36.20;1.00;;;;;;5032333;28;20640;-71
2023/05/29 08:03:20;;;;;;;6.93;6.23;;;36.40;1.00;;;;;;5032072;28;20544;-72
2023/05/29 08:05:46;;;;;;;7.37;6.77;;;36.50;1.00;;;;;;5032146;28;20199;-73
2023/05/29 08:08:12;;;;;;;7.97;7.17;;;35.90;1.00;;;;;;5032217;28;20416;-72
2023/05/29 08:10:38;;;;;;;7.13;6.63;;;35.40;1.00;;;;;;5030892;28;20528;-72
2023/05/29 08:13:04;;;;;;;7.87;6.90;;;35.70;1.00;;;;;;5031916;28;20428;-72
2023/05/29 08:15:31;;;;;;;7.40;6.80;;;34.90;1.00;;;;;;5032077;28;20956;-72
2023/05/29 08:17:56;;;;;;;8.37;7.03;;;34.90;1.00;;;;;;5032055;28;20222;-73
2023/05/29 08:20:22;;;;;;;7.00;6.40;;;35.20;1.00;;;;;;5031967;28;20828;-70
2023/05/29 08:22:48;;;;;;;6.50;6.00;;;34.10;1.00;;;;;;5031901;28;20552;-70
2023/05/29 08:25:13;;;;;;;9.50;7.27;;;34.10;1.00;;;;;;5030932;28;20179;-70
2023/05/29 08:27:39;;;;;;;6.70;6.20;;;33.90;1.00;;;;;;5032024;28;20658;-70
2023/05/29 08:30:05;;;;;;;6.63;6.13;;;34.50;1.00;;;;;;5031976;28;20183;-70
2023/05/29 08:32:31;;;;;;;7.47;6.87;;;34.70;1.00;;;;;;5031496;28;20644;-70
2023/05/29 08:34:56;;;;;;;6.53;6.00;;;35.30;1.00;;;;;;5032001;28;20413;-71
2023/05/29 08:37:22;;;;;;;7.70;7.10;;;35.80;1.00;;;;;;5031648;28;20211;-71
2023/05/29 08:39:48;;;;;;;8.27;7.00;;;35.40;1.00;;;;;;5032411;28;20175;-71
2023/05/29 08:42:22;;;;;;;7.20;6.47;;;36.70;1.00;;;;;;5031930;28;20171;-71
2023/05/29 08:44:50;;;;;;;6.97;6.47;;;35.40;1.00;;;;;;5030729;28;20171;-72
2023/05/29 08:47:20;;;;;;;7.40;6.90;;;35.40;1.00;;;;;;5031595;28;20454;-71
2023/05/29 08:49:52;;;;;;;8.50;7.17;;;35.00;1.00;;;;;;5032203;28;20418;-71
2023/05/29 08:52:27;;;;;;;7.03;6.43;;;35.80;1.00;;;;;;5031491;28;20895;-72
2023/05/29 08:54:54;;;;;;;8.77;6.63;;;35.60;1.00;;;;;;5032342;28;20417;-71
2023/05/29 08:57:21;;;;;;;8.80;8.10;;;34.60;1.00;;;;;;5031892;28;20470;-73
2023/05/29 08:59:49;;;;;;;7.27;6.67;;;33.90;1.00;;;;;;5032134;28;20476;-71
2023/05/29 09:02:15;;;;;;;7.07;6.37;;;32.60;1.00;;;;;;5034730;28;20456;-71
2023/05/29 09:04:44;;;;;;;7.33;6.80;;;32.40;1.00;;;;;;5035468;28;20413;-71
2023/05/29 09:07:11;;;;;;;6.73;6.13;;;31.70;1.00;;;;;;5035406;28;20516;-71
2023/05/29 09:09:37;;;;;;;8.50;7.70;;;31.20;1.00;;;;;;5035475;28;20418;-71
2023/05/29 09:12:03;;;;;;;12.77;7.87;;;29.90;1.00;;;;;;5035040;28;20452;-70
2023/05/29 09:14:40;;;;;;;7.90;7.20;;;27.90;1.00;;;;;;5035462;28;20410;-71
2023/05/29 09:17:08;;;;;;;6.90;6.30;;;26.20;1.00;;;;;;5035122;28;20826;-71
2023/05/29 09:19:34;;;;;;;6.70;6.13;;;24.90;1.00;;;;;;5035244;28;20489;-70
2023/05/29 09:22:07;;;;;;;7.43;6.77;;;24.30;1.00;;;;;;5035178;28;20501;-71
2023/05/29 09:24:34;;;;;;;8.20;6.10;;;24.10;1.00;;;;;;5035246;28;20410;-71
2023/05/29 09:27:01;;;;;;;8.70;6.80;;;23.80;1.00;;;;;;5035044;28;20438;-71
2023/05/29 09:29:30;;;;;;;7.20;6.60;;;23.50;1.00;;;;;;5035151;28;20513;-71
2023/05/29 09:31:56;;;;;;;7.83;6.07;;;23.40;1.00;;;;;;5034703;28;20421;-71
2023/05/29 09:34:29;;;;;;;6.90;5.93;;;23.30;1.00;;;;;;5035126;28;20405;-71
2023/05/29 09:37:10;;;;;;;6.73;6.17;;;23.30;1.00;;;;;;5034860;28;20470;-71
2023/05/29 09:39:42;;;;;;;6.40;5.83;;;23.40;1.00;;;;;;5034918;28;20401;-71
2023/05/29 09:42:08;;;;;;;8.83;6.23;;;23.60;1.00;;;;;;5034404;28;20429;-71
2023/05/29 09:44:34;;;;;;;8.67;6.20;;;23.60;1.00;;;;;;5034912;28;20410;-71
2023/05/29 09:47:00;;;;;;;7.23;6.47;;;23.70;1.00;;;;;;5034824;28;20434;-71
2023/05/29 09:49:27;;;;;;;7.17;6.23;;;23.80;1.00;;;;;;5034755;28;20172;-70
2023/05/29 09:51:56;;;;;;;7.43;6.70;;;23.80;1.00;;;;;;5034427;28;20697;-71
2023/05/29 09:54:21;;;;;;;6.93;6.23;;;24.10;1.00;;;;;;5034565;28;20414;-71
2023/05/29 09:56:47;;;;;;;7.70;6.33;;;24.20;1.00;;;;;;5034578;28;20981;-72
2023/05/29 09:59:14;;;;;;;7.30;6.23;;;24.40;1.00;;;;;;5034643;28;20655;-72
2023/05/29 10:01:43;;;;;;;7.00;6.33;;;24.50;1.00;;;;;;5034234;28;20484;-71
2023/05/29 10:04:10;;;;;;;15.43;6.80;;;24.40;1.00;;;;;;5034454;28;20410;-72
2023/05/29 10:06:44;;;;;;;6.90;6.30;;;24.30;1.00;;;;;;5034410;28;20445;-71
2023/05/29 10:09:13;;;;;;;7.23;6.60;;;24.00;1.00;;;;;;5034407;28;20467;-72
2023/05/29 10:11:41;;;;;;;9.03;7.23;;;24.10;1.00;;;;;;5034012;28;20446;-72
2023/05/29 10:14:10;;;;;;;6.53;6.03;;;24.20;1.00;;;;;;5034680;28;20835;-70
2023/05/29 10:16:41;;;;;;;5.90;5.50;;;24.20;1.00;;;;;;5034203;28;20480;-69
2023/05/29 10:19:12;;;;;;;9.43;7.37;;;24.30;1.00;;;;;;5034397;28;20490;-72
2023/05/29 10:21:40;;;;;;;5.67;5.27;;;24.20;1.00;;;;;;5034088;28;20444;-72
2023/05/29 10:24:07;;;;;;;7.97;7.17;;;24.20;1.00;;;;;;5033393;28;20541;-74
2023/05/29 10:26:38;;;;;;;6.50;5.90;;;24.40;1.00;;;;;;5034371;28;20955;-72
2023/05/29 10:29:16;;;;;;;7.23;6.63;;;24.40;1.00;;;;;;5034490;28;20505;-72
2023/05/29 10:32:03;;;;;;;6.73;6.07;;;24.30;1.00;;;;;;5033872;28;20420;-74
2023/05/29 10:34:38;;;;;;;7.10;5.97;;;24.50;1.00;;;;;;5033998;28;20417;-73
2023/05/29 10:37:29;;;;;;;8.67;6.50;;;24.50;1.00;;;;;;5033948;28;20548;-74
2023/05/29 10:40:07;;;;;;;6.53;6.03;;;24.70;1.00;;;;;;5034012;28;20497;-72
2023/05/29 10:42:45;;;;;;;6.77;6.17;;;25.00;1.00;;;;;;5033293;28;20440;-72
2023/05/29 10:45:43;;;;;;;6.80;6.20;;;25.10;1.00;;;;;;5034145;28;20480;-71
2023/05/29 10:48:12;;;;;;;8.77;7.07;;;25.20;1.00;;;;;;5021285;28;20426;-71
2023/05/29 10:50:38;;;;;;;10.00;5.97;;;25.50;1.00;;;;;;5033601;28;20822;-74
2023/05/29 10:53:09;;;;;;;8.10;7.30;;;25.10;1.00;;;;;;5033111;28;20406;-72
2023/05/29 10:55:36;;;;;;;7.83;6.10;;;25.00;1.00;;;;;;5032065;28;20453;-71
2023/05/29 10:58:11;;;;;;;6.13;5.63;;;24.80;1.00;;;;;;5033330;28;20464;-71
2023/05/29 11:00:44;;;;;;;8.80;6.80;;;24.80;1.00;;;;;;5033373;28;20479;-71
2023/05/29 11:03:10;;;;;;;6.73;6.23;;;24.80;1.00;;;;;;5033132;28;20409;-71
2023/05/29 11:05:55;;;;;;;8.10;7.30;;;24.70;1.00;;;;;;5033219;28;20874;-71
2023/05/29 11:08:32;;;;;;;6.20;5.60;;;24.70;1.00;;;;;;5033312;28;20409;-71
2023/05/29 11:10:59;;;;;;;5.70;5.30;;;24.90;1.00;;;;;;5033276;28;20406;-71
2023/05/29 11:13:34;;;;;;;8.33;6.30;;;25.10;1.00;;;;;;5032885;28;20448;-72
2023/05/29 11:16:24;;;;;;;9.10;5.80;;;25.20;1.00;;;;;;5032908;28;20433;-71
2023/05/29 11:18:51;;;;;;;7.83;6.70;;;25.20;1.00;;;;;;5032985;28;20762;-71
2023/05/29 11:21:34;;;;;;;6.60;6.00;;;25.10;1.00;;;;;;5032972;28;20414;-71
2023/05/29 11:24:02;;;;;;;7.33;6.63;;;24.90;1.00;;;;;;5032374;28;20418;-71
2023/05/29 11:26:29;;;;;;;6.00;5.37;;;25.00;1.00;;;;;;5032641;28;20489;-71
2023/05/29 11:29:10;;;;;;;6.70;6.20;;;25.00;1.00;;;;;;5032803;28;20418;-71
2023/05/29 11:31:38;;;;;;;7.57;6.77;;;24.90;1.00;;;;;;5032660;28;20410;-71
2023/05/29 11:34:05;;;;;;;6.30;5.37;;;25.00;1.00;;;;;;5032764;28;20532;-71
2023/05/29 11:36:34;;;;;;;6.30;5.60;;;25.20;1.00;;;;;;5032569;28;20492;-71
2023/05/29 11:39:01;;;;;;;7.30;5.77;;;25.10;1.00;;;;;;5032722;28;20508;-72
2023/05/29 11:41:27;;;;;;;6.57;6.07;;;24.90;1.00;;;;;;5032484;28;20967;-71
2023/05/29 11:44:01;;;;;;;5.60;5.10;;;25.00;1.00;;;;;;5032498;28;20422;-70
2023/05/29 11:46:30;;;;;;;5.87;5.37;;;25.20;1.00;;;;;;5032418;28;20191;-71
2023/05/29 11:48:56;;;;;;;6.43;5.83;;;25.10;1.00;;;;;;5032607;28;20983;-71
2023/05/29 11:51:22;;;;;;;7.20;6.50;;;25.10;1.00;;;;;;5032353;28;20497;-71
2023/05/29 11:53:48;;;;;;;9.47;6.07;;;25.20;1.00;;;;;;5032192;28;20414;-71
2023/05/29 11:56:14;;;;;;;8.77;5.80;;;25.10;1.00;;;;;;5032265;28;20199;-71
2023/05/29 11:58:40;;;;;;;6.50;6.00;;;25.10;1.00;;;;;;5032232;28;20429;-71
2023/05/29 12:01:08;;;;;;;7.37;6.10;;;25.10;1.00;;;;;;5032273;28;20206;-71
2023/05/29 12:03:43;;;;;;;5.50;5.10;;;25.30;1.00;;;;;;5031938;28;20908;-71
2023/05/29 12:06:12;;;;;;;7.70;6.00;;;25.40;1.00;;;;;;5032088;28;20434;-71
2023/05/29 12:08:39;;;;;;;6.47;5.87;;;25.60;1.00;;;;;;5032072;28;20471;-71
2023/05/29 12:11:05;;;;;;;5.93;5.50;;;25.60;1.00;;;;;;5032053;28;20414;-71
2023/05/29 12:13:31;;;;;;;6.67;5.97;;;25.50;1.00;;;;;;5031809;28;20501;-70
2023/05/29 12:15:59;;;;;;;7.70;5.87;;;25.60;1.00;;;;;;5031950;28;21034;-72
2023/05/29 12:18:25;;;;;;;5.73;5.23;;;25.50;1.00;;;;;;5032032;28;20804;-70
2023/05/29 12:20:56;;;;;;;6.77;6.17;;;25.60;1.00;;;;;;5031926;28;20422;-71
2023/05/29 12:23:22;;;;;;;5.50;5.10;;;25.40;1.00;;;;;;5031699;28;20505;-71
2023/05/29 12:25:48;;;;;;;6.77;6.17;;;25.20;1.00;;;;;;5031824;28;20441;-71
2023/05/29 12:28:20;;;;;;;5.40;5.00;;;25.30;1.00;;;;;;5031879;28;20406;-71
2023/05/29 12:30:49;;;;;;;5.33;4.93;;;25.50;1.00;;;;;;5031827;28;20724;-70
2023/05/29 12:33:29;;;;;;;5.93;5.37;;;25.70;1.00;;;;;;5031498;28;20425;-71
2023/05/29 12:36:15;;;;;;;5.73;5.30;;;25.60;1.00;;;;;;5030745;28;20460;-71
2023/05/29 12:38:51;;;;;;;6.13;5.53;;;25.60;1.00;;;;;;5031563;28;20505;-71
2023/05/29 12:41:30;;;;;;;5.67;5.03;;;25.50;1.00;;;;;;5031797;28;20406;-72
2023/05/29 12:43:56;;;;;;;6.80;5.17;;;25.40;1.00;;;;;;5031476;28;20414;-71
2023/05/29 12:46:26;;;;;;;6.07;5.53;;;25.40;1.00;;;;;;5031540;28;20858;-71
2023/05/29 12:48:55;;;;;;;6.03;5.30;;;25.50;1.00;;;;;;5031678;28;20418;-72
2023/05/29 12:51:27;;;;;;;6.67;5.47;;;25.30;1.00;;;;;;5031491;28;20417;-72
2023/05/29 12:53:54;;;;;;;5.43;4.93;;;25.50;1.00;;;;;;5031480;28;20414;-71
2023/05/29 12:56:22;;;;;;;5.50;5.10;;;25.60;1.00;;;;;;5031420;28;20461;-70